This is the latest recevied weather packets stored in our database for station/object GJ7DNI-13. If no packets are shown the sender has not sent any weather packets the latest 10 day(s).
| Time | Temp. | Humidity | Pressure | Rain* | Wind** | Luminosity | Snow |
|---|---|---|---|---|---|---|---|
| 1777903799 | 15.56° C | 72% | 1012 hPa | 0 mm | - | 295 W/m² | - |
| 1777903499 | 16.11° C | 70% | 1011.9 hPa | 0 mm | - | 302 W/m² | - |
| 1777903199 | 16.67° C | 69% | 1011.9 hPa | 0 mm | - | 320 W/m² | - |
| 1777902899 | 16.67° C | 69% | 1011.9 hPa | 0 mm | - | 311 W/m² | - |
| 1777902599 | 16.11° C | 69% | 1011.8 hPa | 0 mm | - | 311 W/m² | - |
| 1777902299 | 16.67° C | 69% | 1011.9 hPa | 0 mm | - | 285 W/m² | - |
| 1777901999 | 16.11° C | 69% | 1011.9 hPa | 0 mm | - | 297 W/m² | - |
| 1777901699 | 16.11° C | 68% | 1011.8 hPa | 0 mm | - | 332 W/m² | - |
| 1777901399 | 16.11° C | 71% | 1011.8 hPa | 0 mm | - | 441 W/m² | - |
| 1777901099 | 16.11° C | 70% | 1011.8 hPa | 0 mm | - | 504 W/m² | - |
| 1777900799 | 15.56° C | 71% | 1011.9 hPa | 0 mm | - | 494 W/m² | - |
| 1777900499 | 15.56° C | 71% | 1011.9 hPa | 0 mm | - | 294 W/m² | - |
| 1777900199 | 15° C | 73% | 1012 hPa | 0 mm | - | 223 W/m² | - |
| 1777899899 | 15° C | 73% | 1012 hPa | 0 mm | - | 160 W/m² | - |
| 1777899599 | 15° C | 73% | 1012.1 hPa | 0 mm | - | 144 W/m² | - |
| 1777899299 | 15° C | 73% | 1012.1 hPa | 0 mm | - | 130 W/m² | - |
| 1777898999 | 15° C | 72% | 1012.1 hPa | 0 mm | - | 132 W/m² | - |
| 1777898699 | 15° C | 72% | 1012.1 hPa | 0 mm | - | 176 W/m² | - |
| 1777898399 | 15.56° C | 71% | 1012.1 hPa | 0 mm | - | 207 W/m² | - |
| 1777898099 | 15.56° C | 69% | 1012.1 hPa | 0 mm | - | 269 W/m² | - |
| 1777897799 | 15.56° C | 68% | 1012.1 hPa | 0 mm | - | 388 W/m² | - |
| 1777897499 | 16.67° C | 64% | 1012.1 hPa | 0 mm | - | 580 W/m² | - |
| 1777897199 | 18.33° C | 62% | 1012 hPa | 0 mm | - | 582 W/m² | - |
| 1777896899 | 18.33° C | 62% | 1012.1 hPa | 0 mm | - | 568 W/m² | - |
| 1777896599 | 18.89° C | 61% | 1012.1 hPa | 0 mm | - | 369 W/m² | - |
* Rain latest hour (hover to see other rain measurements)
** Current wind speed in m/s (hover to see current wind gust speed)